METAR Data
IDs: Format: Raw Decoded Include TAF

Data at: 2040 UTC 14 Dec 2018

KOCH 141956Z AUTO 30014KT 10SM 08/07 A2984 RMK AO2 RAE1857 SLP108 T00830072 $
KOCH 141856Z AUTO 30012KT 10SM -RA 08/07 A2983 RMK AO2 SLP104 P0000 T00830072 $
KOCH 141756Z AUTO 30018G23KT 10SM -RA 08/08 A2983 RMK AO2 SLP105 P0004 60017 T00830078 10089 20067 52001 $
KOCH 141656Z AUTO 31014G22KT 10SM -RA 08/08 A2982 RMK AO2 SLP102 P0001 T00830078 $
KOCH 141556Z AUTO 31012KT 10SM -RA 08/08 A2983 RMK AO2 SLP107 P0005 T00830078 $
KOCH 141456Z AUTO 28007KT 10SM -RA 08/07 A2983 RMK AO2 SLP104 P0007 60007 T00780072 53017 $
KOCH 141356Z AUTO 26005KT 8SM -RA 07/07 A2981 RMK AO2 RAB1258 SLP098 P0000 T00720067 $
KOCH 141256Z AUTO 25005KT 10SM 07/06 A2978 RMK AO2 RAB09E33 SLP089 P0000 T00670061 $
KOCH 141156Z AUTO 23006KT 10SM 07/06 A2977 RMK AO2 RAB27E52 SLP086 P0000 60000 70104 T00670056 10089 20067 53003 $
KOCH 141056Z AUTO 26005KT 10SM 07/06 A2976 RMK AO2 SLP079 T00670056 $
KOCH 140956Z AUTO 27007KT 10SM 07/06 A2976 RMK AO2 SLP081 T00670056 $
KOCH 140856Z AUTO 25005KT 10SM 07/06 A2977 RMK AO2 SLP083 T00670061 58005 $
KOCH 140756Z AUTO 24006KT 10SM 08/07 A2978 RMK AO2 SLP088 T00780072 $
KOCH 140656Z AUTO 27006KT 10SM 08/07 A2978 RMK AO2 SLP087 T00830072 $
KOCH 140556Z AUTO 29005KT 10SM 09/07 A2978 RMK AO2 SLP087 P0001 60001 T00890072 10172 20072 401940072 53013 $
KOCH 140519Z AUTO 32003KT 10SM 08/08 A2976 RMK AO2 $
KOCH 140512Z AUTO 29004KT 2 1/2SM BR 08/07 A2976 RMK AO2 $
KOCH 140501Z AUTO 27003KT 1SM BR 07/07 A2976 RMK AO2 VIS 1/2V5 RVRNO $
KOCH 140456Z AUTO 28004KT 2SM BR 08/08 A2976 RMK AO2 SLP082 T00780078 $
KOCH 140356Z AUTO 30004KT 10SM 11/08 A2974 RMK AO2 SLP075 T01060083 $
KOCH 140256Z AUTO 29004KT 10SM 13/09 A2974 RMK AO2 SLP074 T01280094 51013 $
KOCH 140236Z AUTO 27006KT 3SM BR 12/12 A2974 RMK AO2 $
KOCH 140234Z AUTO 27005KT 1SM BR 12/12 A2974 RMK AO2 RVRNO $
KOCH 140226Z AUTO 30004KT 1/2SM FG 11/11 A2974 RMK AO2 RVRNO $
KOCH 140222Z AUTO 00000KT 1 1/2SM BR 12/12 A2974 RMK AO2 VIS 1/2V5 $
KOCH 140156Z AUTO 00000KT 10SM 13/13 A2973 RMK AO2 SLP070 T01280128 $
KOCH 140056Z AUTO 25003KT 10SM 16/13 A2972 RMK AO2 SLP068 T01610128 $
KOCH 132356Z AUTO 22004KT 10SM 17/16 A2970 RMK AO2 LTG DSNT NW SLP062 60001 T01720156 10194 20161 53012 $
KOCH 132256Z AUTO 20005KT 10SM 18/17 A2968 RMK AO2 LTG DSNT NE AND E RAE03 SLP053 P0000 T01780167 $
KOCH 132156Z AUTO 00000KT 9SM -RA 18/17 A2967 RMK AO2 RAB42 SLP051 P0001 T01830172 $
KOCH 132056Z AUTO 16007KT 10SM 19/17 A2967 RMK AO2 SLP049 60000 T01890172 56019 $